• Join FlightAware (Why Join?)
  • Login
  • US Flag 
04:27AM EDT


 

Airport Tracker/Info


-or-


 

Live Flight TrackerFlight Track Log ✈ N104FT ✈ 01-May-2013 ✈ KFRG - KTEB

Flight Track Log - Related Links

Times and Time Zones

All times are in EDT time to prevent confusion due to time zone crossing. See the N104FT flight status page for this flight to view local times or setup timezone preferences in your user account.

Time Position Orientation Groundspeed Altitude Reporting Facility
EDT Latitude Longitude Course Direction KTS MPH feet Rate Location/Type
02:47PM 40.6667 -73.4667 208° Southwest 241 277 3,000  Level New York TRACON
02:48PM 40.6833 -73.5500 285° West 271 312 4,200 960 Climbing New York TRACON
02:49PM 40.6833 -73.6667 270° West 285 328 5,000 360 Climbing New York TRACON
02:50PM 40.6500 -73.7667 246° West 283 326 5,000  Level New York TRACON
02:51PM 40.6333 -73.8500 255° West 271 312 5,000  Level New York TRACON
02:52PM 40.5750 -73.7964 208° Southwest  Level FlightAware Approximate
02:52PM 40.6000 -73.9500 246° West 280 322 5,000  Level New York TRACON
02:53PM 40.5333 -73.9833 201° Southwest 260 299 5,000  Level New York TRACON
02:54PM 40.4667 -74.0167 201° Southwest 268 308 5,000  Level New York TRACON
02:55PM 40.4000 -74.0667 210° Southwest 267 307 5,000 -240 Level New York TRACON
02:57PM 40.2915 -74.0568 176° South  Level FlightAware Approximate
02:59PM 40.1667 -74.2833 294° West 296 341 4,100  Level New York TRACON
03:00PM 40.1833 -74.3833 282° West 287 330 4,100  Level New York TRACON
03:01PM 40.2333 -74.4500 315° West 276 318 4,100  Level New York TRACON
03:02PM 40.3000 -74.5000 330° Northwest 261 300 4,100  Level New York TRACON
03:03PM 40.3667 -74.5167 349° North 259 298 4,100  Level New York TRACON
03:04PM 40.1976 -74.4762 294° West  Level FlightAware Approximate
03:04PM 40.4500 -74.5333 351° North 256 295 4,100  Level New York TRACON
03:05PM 40.5167 -74.5167 11° North 261 300 4,100 -300 Level New York TRACON
03:06PM 40.5833 -74.5167 360° North 265 305 3,500 -540 Descending New York TRACON
03:07PM 40.6667 -74.5000 North 260 299 3,100 -240 Descending New York TRACON
03:08PM 40.7333 -74.5000 360° North 261 300 3,100  Level New York TRACON
03:09PM 40.8000 -74.4667 21° North 260 299 3,100  Level New York TRACON
03:10PM 40.8500 -74.4167 37° Northeast 258 297 3,100  Level New York TRACON
03:11PM 40.9167 -74.3667 30° Northeast 261 300 3,100  Level New York TRACON
03:12PM 40.9667 -74.3000 45° Northeast 265 305 3,100 -240 Level New York TRACON
03:13PM 41.0167 -74.2333 45° Northeast 240 276 2,700 -600 Descending New York TRACON
03:14PM 41.0333 -74.1667 72° East 217 250 2,000 -420 Descending New York TRACON
03:15PM 41.0333 -74.1000 90° East 196 226 2,000  Level New York TRACON
03:16PM 41.0000 -74.0500 131° Southeast 168 193 2,000 -60 Level New York TRACON
03:17PM 40.9500 -74.0500 180° South 175 201 1,900 -540 Descending New York TRACON
03:18PM 40.9000 -74.0500 180° South 148 170 1,000 -900 Descending New York TRACON
03:19PM 40.8667 -74.0667 201° Southwest 135 155 200 -840 Descending New York TRACON
03:21PM 40.8500 -74.0500 180° South  Level FlightAware Approximate
03:28PM 40.8501 -74.0608 180° South  Level Estimated
03:29PM 40.8501 -74.0608 180° South  Level Estimated
03:30PM 40.8501 -74.0608 180° South  Level Estimated
03:31PM 40.8501 -74.0608 180° South  Level Estimated